sensor_id;sensor_type;location;lat;lon;timestamp;P1;durP1;ratioP1;P2;durP2;ratioP2
63379;SDS011;53160;55.014;73.156;2023-05-14T00:00:44;8.80;;;8.60;;
63379;SDS011;53160;55.014;73.156;2023-05-14T00:03:30;9.20;;;9.20;;
63379;SDS011;53160;55.014;73.156;2023-05-14T00:05:56;12.00;;;11.60;;
63379;SDS011;53160;55.014;73.156;2023-05-14T00:08:22;8.60;;;7.00;;
63379;SDS011;53160;55.014;73.156;2023-05-14T00:10:48;11.00;;;11.00;;
63379;SDS011;53160;55.014;73.156;2023-05-14T00:16:18;10.20;;;9.00;;
63379;SDS011;53160;55.014;73.156;2023-05-14T00:19:02;11.00;;;9.80;;
63379;SDS011;53160;55.014;73.156;2023-05-14T00:21:28;9.00;;;9.00;;
63379;SDS011;53160;55.014;73.156;2023-05-14T00:24:13;13.20;;;12.60;;
63379;SDS011;53160;55.014;73.156;2023-05-14T00:26:40;1.80;;;1.80;;
63379;SDS011;53160;55.014;73.156;2023-05-14T00:29:24;11.00;;;10.40;;
63379;SDS011;53160;55.014;73.156;2023-05-14T00:31:50;9.80;;;9.00;;
63379;SDS011;53160;55.014;73.156;2023-05-14T00:34:16;4.40;;;4.00;;
63379;SDS011;53160;55.014;73.156;2023-05-14T00:39:27;8.60;;;7.60;;
63379;SDS011;53160;55.014;73.156;2023-05-14T00:41:53;13.75;;;13.00;;
63379;SDS011;53160;55.014;73.156;2023-05-14T00:44:37;10.40;;;10.40;;
63379;SDS011;53160;55.014;73.156;2023-05-14T00:47:03;9.60;;;9.40;;
63379;SDS011;53160;55.014;73.156;2023-05-14T00:49:29;8.00;;;8.00;;
63379;SDS011;53160;55.014;73.156;2023-05-14T00:52:17;12.60;;;12.40;;
63379;SDS011;53160;55.014;73.156;2023-05-14T00:54:44;11.60;;;11.60;;
63379;SDS011;53160;55.014;73.156;2023-05-14T00:57:11;16.20;;;14.40;;
63379;SDS011;53160;55.014;73.156;2023-05-14T00:59:38;6.40;;;5.80;;
63379;SDS011;53160;55.014;73.156;2023-05-14T01:02:10;15.20;;;15.00;;
63379;SDS011;53160;55.014;73.156;2023-05-14T01:04:56;17.00;;;13.60;;
63379;SDS011;53160;55.014;73.156;2023-05-14T01:10:35;17.80;;;16.40;;
63379;SDS011;53160;55.014;73.156;2023-05-14T01:15:51;13.60;;;13.40;;
63379;SDS011;53160;55.014;73.156;2023-05-14T01:18:37;20.20;;;17.80;;
63379;SDS011;53160;55.014;73.156;2023-05-14T01:21:04;17.40;;;14.80;;
63379;SDS011;53160;55.014;73.156;2023-05-14T01:23:43;19.40;;;17.40;;
63379;SDS011;53160;55.014;73.156;2023-05-14T01:26:09;21.80;;;20.00;;
63379;SDS011;53160;55.014;73.156;2023-05-14T01:28:35;15.00;;;14.00;;
63379;SDS011;53160;55.014;73.156;2023-05-14T01:31:13;17.60;;;16.80;;
63379;SDS011;53160;55.014;73.156;2023-05-14T01:33:42;9.00;;;7.80;;
63379;SDS011;53160;55.014;73.156;2023-05-14T01:36:09;14.80;;;13.80;;
63379;SDS011;53160;55.014;73.156;2023-05-14T01:38:35;13.00;;;12.60;;
63379;SDS011;53160;55.014;73.156;2023-05-14T01:41:01;15.20;;;14.00;;
63379;SDS011;53160;55.014;73.156;2023-05-14T01:43:28;19.00;;;17.20;;
63379;SDS011;53160;55.014;73.156;2023-05-14T01:45:55;10.40;;;10.40;;
63379;SDS011;53160;55.014;73.156;2023-05-14T01:48:22;18.00;;;16.20;;
63379;SDS011;53160;55.014;73.156;2023-05-14T01:53:33;19.60;;;17.60;;
63379;SDS011;53160;55.014;73.156;2023-05-14T01:55:59;18.60;;;14.80;;
63379;SDS011;53160;55.014;73.156;2023-05-14T01:58:26;18.00;;;18.00;;
63379;SDS011;53160;55.014;73.156;2023-05-14T02:00:52;19.80;;;19.60;;
63379;SDS011;53160;55.014;73.156;2023-05-14T02:03:18;17.20;;;16.40;;
63379;SDS011;53160;55.014;73.156;2023-05-14T02:05:44;14.80;;;14.20;;
63379;SDS011;53160;55.014;73.156;2023-05-14T02:08:10;14.40;;;14.40;;
63379;SDS011;53160;55.014;73.156;2023-05-14T02:10:36;19.20;;;18.60;;
63379;SDS011;53160;55.014;73.156;2023-05-14T02:13:02;14.60;;;14.60;;
63379;SDS011;53160;55.014;73.156;2023-05-14T02:18:33;20.60;;;18.00;;
63379;SDS011;53160;55.014;73.156;2023-05-14T02:20:59;16.20;;;15.20;;
63379;SDS011;53160;55.014;73.156;2023-05-14T02:26:29;14.60;;;14.20;;
63379;SDS011;53160;55.014;73.156;2023-05-14T02:29:13;17.00;;;15.60;;
63379;SDS011;53160;55.014;73.156;2023-05-14T02:31:39;15.00;;;14.00;;
63379;SDS011;53160;55.014;73.156;2023-05-14T02:34:09;18.80;;;18.80;;
63379;SDS011;53160;55.014;73.156;2023-05-14T02:36:35;18.00;;;18.00;;
63379;SDS011;53160;55.014;73.156;2023-05-14T02:39:01;18.40;;;17.20;;
63379;SDS011;53160;55.014;73.156;2023-05-14T02:41:28;17.80;;;17.60;;
63379;SDS011;53160;55.014;73.156;2023-05-14T02:46:39;16.00;;;14.20;;
63379;SDS011;53160;55.014;73.156;2023-05-14T02:49:08;28.00;;;22.00;;
63379;SDS011;53160;55.014;73.156;2023-05-14T02:51:35;21.40;;;19.60;;
63379;SDS011;53160;55.014;73.156;2023-05-14T02:54:01;20.40;;;19.20;;
63379;SDS011;53160;55.014;73.156;2023-05-14T02:56:27;18.60;;;18.40;;
63379;SDS011;53160;55.014;73.156;2023-05-14T02:58:53;18.00;;;16.00;;
63379;SDS011;53160;55.014;73.156;2023-05-14T03:01:37;10.00;;;9.20;;
63379;SDS011;53160;55.014;73.156;2023-05-14T03:04:09;20.80;;;18.40;;
63379;SDS011;53160;55.014;73.156;2023-05-14T03:06:35;26.20;;;24.40;;
63379;SDS011;53160;55.014;73.156;2023-05-14T03:09:20;14.40;;;13.60;;
63379;SDS011;53160;55.014;73.156;2023-05-14T03:11:46;19.60;;;18.80;;
63379;SDS011;53160;55.014;73.156;2023-05-14T03:14:12;18.80;;;17.80;;
63379;SDS011;53160;55.014;73.156;2023-05-14T03:16:59;27.40;;;23.80;;
63379;SDS011;53160;55.014;73.156;2023-05-14T03:19:44;22.80;;;20.20;;
63379;SDS011;53160;55.014;73.156;2023-05-14T03:22:28;19.80;;;16.80;;
63379;SDS011;53160;55.014;73.156;2023-05-14T03:25:13;23.20;;;21.00;;
63379;SDS011;53160;55.014;73.156;2023-05-14T03:27:57;22.20;;;19.80;;
63379;SDS011;53160;55.014;73.156;2023-05-14T03:33:14;16.20;;;15.60;;
63379;SDS011;53160;55.014;73.156;2023-05-14T03:38:25;15.40;;;15.20;;
63379;SDS011;53160;55.014;73.156;2023-05-14T03:40:51;18.00;;;16.00;;
63379;SDS011;53160;55.014;73.156;2023-05-14T03:46:03;15.60;;;15.60;;
63379;SDS011;53160;55.014;73.156;2023-05-14T03:48:29;17.40;;;16.80;;
63379;SDS011;53160;55.014;73.156;2023-05-14T03:50:55;18.60;;;17.60;;
63379;SDS011;53160;55.014;73.156;2023-05-14T03:53:21;16.60;;;16.60;;
63379;SDS011;53160;55.014;73.156;2023-05-14T03:56:06;14.80;;;14.00;;
63379;SDS011;53160;55.014;73.156;2023-05-14T03:58:32;13.20;;;12.80;;
63379;SDS011;53160;55.014;73.156;2023-05-14T04:00:58;11.00;;;10.80;;
63379;SDS011;53160;55.014;73.156;2023-05-14T04:03:25;14.20;;;14.20;;
63379;SDS011;53160;55.014;73.156;2023-05-14T04:05:51;13.00;;;13.00;;
63379;SDS011;53160;55.014;73.156;2023-05-14T04:08:18;12.40;;;12.20;;
63379;SDS011;53160;55.014;73.156;2023-05-14T04:13:29;14.40;;;14.40;;
63379;SDS011;53160;55.014;73.156;2023-05-14T04:16:17;14.40;;;13.00;;
63379;SDS011;53160;55.014;73.156;2023-05-14T04:18:47;14.00;;;13.40;;
63379;SDS011;53160;55.014;73.156;2023-05-14T04:24:00;13.80;;;12.40;;
63379;SDS011;53160;55.014;73.156;2023-05-14T04:26:27;13.00;;;11.60;;
63379;SDS011;53160;55.014;73.156;2023-05-14T04:31:48;10.00;;;10.00;;
63379;SDS011;53160;55.014;73.156;2023-05-14T04:34:14;13.40;;;13.00;;
63379;SDS011;53160;55.014;73.156;2023-05-14T04:36:40;14.40;;;14.40;;
63379;SDS011;53160;55.014;73.156;2023-05-14T04:42:09;14.00;;;14.00;;
63379;SDS011;53160;55.014;73.156;2023-05-14T04:44:36;16.20;;;14.00;;
63379;SDS011;53160;55.014;73.156;2023-05-14T04:47:02;14.75;;;13.75;;
63379;SDS011;53160;55.014;73.156;2023-05-14T04:49:29;15.00;;;14.00;;
63379;SDS011;53160;55.014;73.156;2023-05-14T04:51:55;18.80;;;16.20;;
63379;SDS011;53160;55.014;73.156;2023-05-14T04:54:22;16.00;;;15.20;;
63379;SDS011;53160;55.014;73.156;2023-05-14T04:56:48;14.20;;;12.60;;
63379;SDS011;53160;55.014;73.156;2023-05-14T04:59:14;10.00;;;9.80;;
63379;SDS011;53160;55.014;73.156;2023-05-14T05:01:41;11.60;;;11.60;;
63379;SDS011;53160;55.014;73.156;2023-05-14T05:04:08;13.40;;;12.80;;
63379;SDS011;53160;55.014;73.156;2023-05-14T05:06:34;12.25;;;12.25;;
63379;SDS011;53160;55.014;73.156;2023-05-14T05:09:00;10.40;;;8.00;;
63379;SDS011;53160;55.014;73.156;2023-05-14T05:11:27;11.60;;;11.60;;
63379;SDS011;53160;55.014;73.156;2023-05-14T05:16:38;11.60;;;11.00;;
63379;SDS011;53160;55.014;73.156;2023-05-14T05:19:04;13.60;;;12.80;;
63379;SDS011;53160;55.014;73.156;2023-05-14T05:21:30;11.80;;;11.80;;
63379;SDS011;53160;55.014;73.156;2023-05-14T05:23:57;14.20;;;13.20;;
63379;SDS011;53160;55.014;73.156;2023-05-14T05:26:24;13.75;;;13.25;;
63379;SDS011;53160;55.014;73.156;2023-05-14T05:28:51;6.80;;;6.60;;
63379;SDS011;53160;55.014;73.156;2023-05-14T05:31:17;15.75;;;15.00;;
63379;SDS011;53160;55.014;73.156;2023-05-14T05:33:43;15.20;;;14.40;;
63379;SDS011;53160;55.014;73.156;2023-05-14T05:36:09;14.00;;;12.00;;
63379;SDS011;53160;55.014;73.156;2023-05-14T05:38:53;17.20;;;16.20;;
63379;SDS011;53160;55.014;73.156;2023-05-14T05:41:20;15.00;;;14.40;;
63379;SDS011;53160;55.014;73.156;2023-05-14T05:43:46;12.40;;;11.60;;
63379;SDS011;53160;55.014;73.156;2023-05-14T05:46:12;15.00;;;15.00;;
63379;SDS011;53160;55.014;73.156;2023-05-14T05:49:00;12.80;;;12.00;;
63379;SDS011;53160;55.014;73.156;2023-05-14T05:51:44;9.00;;;7.40;;
63379;SDS011;53160;55.014;73.156;2023-05-14T05:56:56;9.80;;;9.80;;
63379;SDS011;53160;55.014;73.156;2023-05-14T05:59:26;8.00;;;8.00;;
63379;SDS011;53160;55.014;73.156;2023-05-14T06:01:52;8.80;;;8.60;;
63379;SDS011;53160;55.014;73.156;2023-05-14T06:04:18;8.00;;;8.00;;
63379;SDS011;53160;55.014;73.156;2023-05-14T06:06:44;13.40;;;12.80;;
63379;SDS011;53160;55.014;73.156;2023-05-14T06:09:10;10.67;;;10.67;;
63379;SDS011;53160;55.014;73.156;2023-05-14T06:14:42;12.00;;;11.20;;
63379;SDS011;53160;55.014;73.156;2023-05-14T06:17:08;9.80;;;9.40;;
63379;SDS011;53160;55.014;73.156;2023-05-14T06:19:35;10.00;;;10.00;;
63379;SDS011;53160;55.014;73.156;2023-05-14T06:22:03;12.60;;;11.00;;
63379;SDS011;53160;55.014;73.156;2023-05-14T06:24:29;10.00;;;9.80;;
63379;SDS011;53160;55.014;73.156;2023-05-14T06:26:55;14.25;;;13.00;;
63379;SDS011;53160;55.014;73.156;2023-05-14T06:29:39;4.00;;;2.00;;
63379;SDS011;53160;55.014;73.156;2023-05-14T06:32:06;10.40;;;9.80;;
63379;SDS011;53160;55.014;73.156;2023-05-14T06:34:32;8.00;;;7.00;;
63379;SDS011;53160;55.014;73.156;2023-05-14T06:36:58;7.40;;;6.40;;
63379;SDS011;53160;55.014;73.156;2023-05-14T06:39:27;12.40;;;11.00;;
63379;SDS011;53160;55.014;73.156;2023-05-14T06:42:12;16.20;;;13.80;;
63379;SDS011;53160;55.014;73.156;2023-05-14T06:44:38;17.40;;;11.40;;
63379;SDS011;53160;55.014;73.156;2023-05-14T06:47:04;13.50;;;12.75;;
63379;SDS011;53160;55.014;73.156;2023-05-14T06:49:51;9.60;;;9.20;;
63379;SDS011;53160;55.014;73.156;2023-05-14T06:52:17;12.67;;;12.67;;
63379;SDS011;53160;55.014;73.156;2023-05-14T06:54:43;11.25;;;10.25;;
63379;SDS011;53160;55.014;73.156;2023-05-14T06:57:10;9.80;;;9.60;;
63379;SDS011;53160;55.014;73.156;2023-05-14T06:59:37;11.40;;;11.40;;
63379;SDS011;53160;55.014;73.156;2023-05-14T07:02:02;13.20;;;13.00;;
63379;SDS011;53160;55.014;73.156;2023-05-14T07:04:28;13.00;;;12.25;;
63379;SDS011;53160;55.014;73.156;2023-05-14T07:07:16;13.40;;;12.60;;
63379;SDS011;53160;55.014;73.156;2023-05-14T07:09:46;13.40;;;13.20;;
63379;SDS011;53160;55.014;73.156;2023-05-14T07:12:12;12.20;;;12.00;;
63379;SDS011;53160;55.014;73.156;2023-05-14T07:14:38;13.75;;;13.00;;
63379;SDS011;53160;55.014;73.156;2023-05-14T07:17:14;13.80;;;13.00;;
63379;SDS011;53160;55.014;73.156;2023-05-14T07:19:40;10.00;;;9.75;;
63379;SDS011;53160;55.014;73.156;2023-05-14T07:22:06;12.25;;;11.50;;
63379;SDS011;53160;55.014;73.156;2023-05-14T07:24:50;13.00;;;13.00;;
63379;SDS011;53160;55.014;73.156;2023-05-14T07:27:19;14.40;;;13.60;;
63379;SDS011;53160;55.014;73.156;2023-05-14T07:29:45;17.80;;;15.80;;
63379;SDS011;53160;55.014;73.156;2023-05-14T07:32:11;19.75;;;16.50;;
63379;SDS011;53160;55.014;73.156;2023-05-14T07:34:37;17.50;;;16.25;;
63379;SDS011;53160;55.014;73.156;2023-05-14T07:39:50;14.60;;;12.20;;
63379;SDS011;53160;55.014;73.156;2023-05-14T07:42:17;26.40;;;22.00;;
63379;SDS011;53160;55.014;73.156;2023-05-14T07:45:02;16.00;;;16.00;;
63379;SDS011;53160;55.014;73.156;2023-05-14T07:47:46;17.40;;;16.60;;
63379;SDS011;53160;55.014;73.156;2023-05-14T07:50:16;20.40;;;19.40;;
63379;SDS011;53160;55.014;73.156;2023-05-14T07:52:43;25.00;;;23.40;;
63379;SDS011;53160;55.014;73.156;2023-05-14T07:55:09;17.00;;;16.20;;
63379;SDS011;53160;55.014;73.156;2023-05-14T07:57:35;18.40;;;16.00;;
63379;SDS011;53160;55.014;73.156;2023-05-14T08:00:23;23.40;;;21.20;;
63379;SDS011;53160;55.014;73.156;2023-05-14T08:02:54;18.60;;;16.40;;
63379;SDS011;53160;55.014;73.156;2023-05-14T08:05:20;16.20;;;15.20;;
63379;SDS011;53160;55.014;73.156;2023-05-14T08:10:50;13.40;;;13.40;;
63379;SDS011;53160;55.014;73.156;2023-05-14T08:13:16;12.50;;;12.00;;
63379;SDS011;53160;55.014;73.156;2023-05-14T08:15:42;6.00;;;6.00;;
63379;SDS011;53160;55.014;73.156;2023-05-14T08:18:08;9.00;;;8.75;;
63379;SDS011;53160;55.014;73.156;2023-05-14T08:20:34;14.50;;;12.00;;
63379;SDS011;53160;55.014;73.156;2023-05-14T08:25:44;4.50;;;4.00;;
63379;SDS011;53160;55.014;73.156;2023-05-14T08:28:10;7.00;;;7.00;;
63379;SDS011;53160;55.014;73.156;2023-05-14T08:30:37;8.25;;;8.25;;
63379;SDS011;53160;55.014;73.156;2023-05-14T08:35:49;9.00;;;8.75;;
63379;SDS011;53160;55.014;73.156;2023-05-14T08:38:14;17.00;;;14.50;;
63379;SDS011;53160;55.014;73.156;2023-05-14T08:40:40;11.25;;;8.75;;
63379;SDS011;53160;55.014;73.156;2023-05-14T08:46:11;10.50;;;8.25;;
63379;SDS011;53160;55.014;73.156;2023-05-14T08:51:23;7.75;;;6.50;;
63379;SDS011;53160;55.014;73.156;2023-05-14T08:53:49;10.00;;;8.75;;
63379;SDS011;53160;55.014;73.156;2023-05-14T08:56:16;8.25;;;8.00;;
63379;SDS011;53160;55.014;73.156;2023-05-14T08:58:42;6.00;;;4.75;;
63379;SDS011;53160;55.014;73.156;2023-05-14T09:01:09;5.75;;;5.25;;
63379;SDS011;53160;55.014;73.156;2023-05-14T09:03:35;7.33;;;6.00;;
63379;SDS011;53160;55.014;73.156;2023-05-14T09:06:01;7.40;;;6.20;;
63379;SDS011;53160;55.014;73.156;2023-05-14T09:08:28;8.60;;;8.60;;
63379;SDS011;53160;55.014;73.156;2023-05-14T09:10:54;3.00;;;3.00;;
63379;SDS011;53160;55.014;73.156;2023-05-14T09:13:20;7.00;;;6.00;;
63379;SDS011;53160;55.014;73.156;2023-05-14T09:15:46;8.60;;;8.40;;
63379;SDS011;53160;55.014;73.156;2023-05-14T09:18:14;6.60;;;6.60;;
63379;SDS011;53160;55.014;73.156;2023-05-14T09:23:25;5.60;;;5.60;;
63379;SDS011;53160;55.014;73.156;2023-05-14T09:26:16;3.00;;;3.00;;
63379;SDS011;53160;55.014;73.156;2023-05-14T09:28:43;5.00;;;5.00;;
63379;SDS011;53160;55.014;73.156;2023-05-14T09:31:31;4.80;;;4.80;;
63379;SDS011;53160;55.014;73.156;2023-05-14T09:33:58;6.00;;;5.60;;
63379;SDS011;53160;55.014;73.156;2023-05-14T09:36:25;6.00;;;5.80;;
63379;SDS011;53160;55.014;73.156;2023-05-14T09:38:52;5.00;;;5.00;;
63379;SDS011;53160;55.014;73.156;2023-05-14T09:41:18;10.40;;;10.00;;
63379;SDS011;53160;55.014;73.156;2023-05-14T09:43:45;9.00;;;8.40;;
63379;SDS011;53160;55.014;73.156;2023-05-14T09:46:30;8.40;;;8.00;;
63379;SDS011;53160;55.014;73.156;2023-05-14T09:48:56;8.00;;;8.00;;
63379;SDS011;53160;55.014;73.156;2023-05-14T09:54:10;8.00;;;8.00;;
63379;SDS011;53160;55.014;73.156;2023-05-14T09:56:37;14.60;;;13.80;;
63379;SDS011;53160;55.014;73.156;2023-05-14T09:59:04;13.20;;;11.40;;
63379;SDS011;53160;55.014;73.156;2023-05-14T10:01:30;10.20;;;9.80;;
63379;SDS011;53160;55.014;73.156;2023-05-14T10:04:15;8.20;;;8.20;;
63379;SDS011;53160;55.014;73.156;2023-05-14T10:12:31;8.40;;;8.40;;
63379;SDS011;53160;55.014;73.156;2023-05-14T10:17:45;9.00;;;8.40;;
63379;SDS011;53160;55.014;73.156;2023-05-14T10:20:13;7.80;;;7.40;;
63379;SDS011;53160;55.014;73.156;2023-05-14T10:22:43;7.00;;;7.00;;
63379;SDS011;53160;55.014;73.156;2023-05-14T10:25:09;6.20;;;6.20;;
63379;SDS011;53160;55.014;73.156;2023-05-14T10:27:36;7.60;;;7.00;;
63379;SDS011;53160;55.014;73.156;2023-05-14T10:30:04;8.80;;;8.60;;
63379;SDS011;53160;55.014;73.156;2023-05-14T10:32:30;5.40;;;5.00;;
63379;SDS011;53160;55.014;73.156;2023-05-14T10:34:57;6.80;;;6.20;;
63379;SDS011;53160;55.014;73.156;2023-05-14T10:37:26;6.00;;;5.80;;
63379;SDS011;53160;55.014;73.156;2023-05-14T10:42:23;10.40;;;10.40;;
63379;SDS011;53160;55.014;73.156;2023-05-14T10:44:54;13.60;;;12.80;;
63379;SDS011;53160;55.014;73.156;2023-05-14T10:47:23;15.00;;;14.60;;
63379;SDS011;53160;55.014;73.156;2023-05-14T10:49:52;7.40;;;7.40;;
63379;SDS011;53160;55.014;73.156;2023-05-14T10:52:39;14.40;;;13.80;;
63379;SDS011;53160;55.014;73.156;2023-05-14T10:55:05;7.00;;;6.00;;
63379;SDS011;53160;55.014;73.156;2023-05-14T10:57:38;8.00;;;8.00;;
63379;SDS011;53160;55.014;73.156;2023-05-14T11:00:05;9.00;;;8.60;;
63379;SDS011;53160;55.014;73.156;2023-05-14T11:02:54;7.00;;;6.00;;
63379;SDS011;53160;55.014;73.156;2023-05-14T11:05:22;7.40;;;7.00;;
63379;SDS011;53160;55.014;73.156;2023-05-14T11:10:33;6.00;;;6.00;;
63379;SDS011;53160;55.014;73.156;2023-05-14T11:13:00;7.00;;;7.00;;
63379;SDS011;53160;55.014;73.156;2023-05-14T11:18:12;13.00;;;12.60;;
63379;SDS011;53160;55.014;73.156;2023-05-14T11:23:24;5.40;;;5.00;;
63379;SDS011;53160;55.014;73.156;2023-05-14T11:25:51;7.00;;;6.00;;
63379;SDS011;53160;55.014;73.156;2023-05-14T11:28:21;7.20;;;7.20;;
63379;SDS011;53160;55.014;73.156;2023-05-14T11:30:48;9.00;;;9.00;;
63379;SDS011;53160;55.014;73.156;2023-05-14T11:33:14;12.20;;;11.20;;
63379;SDS011;53160;55.014;73.156;2023-05-14T11:35:41;14.60;;;13.00;;
63379;SDS011;53160;55.014;73.156;2023-05-14T11:38:13;7.00;;;7.00;;
63379;SDS011;53160;55.014;73.156;2023-05-14T11:44:04;10.80;;;10.20;;
63379;SDS011;53160;55.014;73.156;2023-05-14T11:46:53;6.80;;;5.60;;
63379;SDS011;53160;55.014;73.156;2023-05-14T11:49:22;6.00;;;6.00;;
63379;SDS011;53160;55.014;73.156;2023-05-14T11:51:48;10.40;;;10.40;;
63379;SDS011;53160;55.014;73.156;2023-05-14T11:54:14;6.60;;;6.60;;
63379;SDS011;53160;55.014;73.156;2023-05-14T11:56:40;10.00;;;10.00;;
63379;SDS011;53160;55.014;73.156;2023-05-14T11:59:09;11.20;;;10.40;;
63379;SDS011;53160;55.014;73.156;2023-05-14T12:01:36;11.60;;;11.40;;
63379;SDS011;53160;55.014;73.156;2023-05-14T12:04:03;11.60;;;11.00;;
63379;SDS011;53160;55.014;73.156;2023-05-14T12:06:51;11.20;;;10.00;;
63379;SDS011;53160;55.014;73.156;2023-05-14T12:09:43;12.00;;;11.40;;
63379;SDS011;53160;55.014;73.156;2023-05-14T12:12:15;11.00;;;10.00;;
63379;SDS011;53160;55.014;73.156;2023-05-14T12:14:42;6.00;;;5.20;;
63379;SDS011;53160;55.014;73.156;2023-05-14T12:17:15;11.60;;;11.60;;
63379;SDS011;53160;55.014;73.156;2023-05-14T12:19:42;17.20;;;17.20;;
63379;SDS011;53160;55.014;73.156;2023-05-14T12:22:12;10.60;;;10.00;;
63379;SDS011;53160;55.014;73.156;2023-05-14T12:27:43;16.80;;;16.20;;
63379;SDS011;53160;55.014;73.156;2023-05-14T12:30:10;9.80;;;9.20;;
63379;SDS011;53160;55.014;73.156;2023-05-14T12:32:37;5.60;;;5.00;;
63379;SDS011;53160;55.014;73.156;2023-05-14T12:35:10;6.60;;;6.60;;
63379;SDS011;53160;55.014;73.156;2023-05-14T12:37:38;7.20;;;7.20;;
63379;SDS011;53160;55.014;73.156;2023-05-14T12:42:50;7.40;;;7.00;;
63379;SDS011;53160;55.014;73.156;2023-05-14T12:48:18;10.20;;;9.40;;
63379;SDS011;53160;55.014;73.156;2023-05-14T12:53:29;5.20;;;4.80;;
63379;SDS011;53160;55.014;73.156;2023-05-14T12:55:55;4.75;;;4.50;;
63379;SDS011;53160;55.014;73.156;2023-05-14T12:58:21;3.80;;;3.80;;
63379;SDS011;53160;55.014;73.156;2023-05-14T13:00:47;5.00;;;5.00;;
63379;SDS011;53160;55.014;73.156;2023-05-14T13:03:14;4.75;;;4.00;;
63379;SDS011;53160;55.014;73.156;2023-05-14T13:05:46;4.50;;;4.50;;
63379;SDS011;53160;55.014;73.156;2023-05-14T13:08:12;5.50;;;5.50;;
63379;SDS011;53160;55.014;73.156;2023-05-14T13:10:47;5.00;;;5.00;;
63379;SDS011;53160;55.014;73.156;2023-05-14T13:13:16;9.25;;;5.50;;
63379;SDS011;53160;55.014;73.156;2023-05-14T13:15:42;7.25;;;7.00;;
63379;SDS011;53160;55.014;73.156;2023-05-14T13:18:15;5.00;;;3.25;;
63379;SDS011;53160;55.014;73.156;2023-05-14T13:20:41;6.00;;;5.25;;
63379;SDS011;53160;55.014;73.156;2023-05-14T13:23:07;6.25;;;6.25;;
63379;SDS011;53160;55.014;73.156;2023-05-14T13:25:33;8.25;;;6.75;;
63379;SDS011;53160;55.014;73.156;2023-05-14T13:28:00;8.25;;;8.25;;
63379;SDS011;53160;55.014;73.156;2023-05-14T13:30:26;7.50;;;7.50;;
63379;SDS011;53160;55.014;73.156;2023-05-14T13:32:52;9.50;;;9.00;;
63379;SDS011;53160;55.014;73.156;2023-05-14T13:35:21;8.50;;;8.50;;
63379;SDS011;53160;55.014;73.156;2023-05-14T13:37:46;10.00;;;10.00;;
63379;SDS011;53160;55.014;73.156;2023-05-14T13:40:13;7.75;;;7.75;;
63379;SDS011;53160;55.014;73.156;2023-05-14T13:42:39;7.60;;;7.00;;
63379;SDS011;53160;55.014;73.156;2023-05-14T13:45:05;9.00;;;8.40;;
63379;SDS011;53160;55.014;73.156;2023-05-14T13:47:32;11.40;;;10.80;;
63379;SDS011;53160;55.014;73.156;2023-05-14T13:49:58;15.40;;;14.80;;
63379;SDS011;53160;55.014;73.156;2023-05-14T13:52:27;16.20;;;14.40;;
63379;SDS011;53160;55.014;73.156;2023-05-14T13:54:54;16.00;;;16.00;;
63379;SDS011;53160;55.014;73.156;2023-05-14T14:00:25;18.40;;;17.60;;
63379;SDS011;53160;55.014;73.156;2023-05-14T14:05:36;16.40;;;15.60;;
63379;SDS011;53160;55.014;73.156;2023-05-14T14:08:23;20.40;;;18.80;;
63379;SDS011;53160;55.014;73.156;2023-05-14T14:10:49;18.80;;;16.60;;
63379;SDS011;53160;55.014;73.156;2023-05-14T14:13:33;17.80;;;16.80;;
63379;SDS011;53160;55.014;73.156;2023-05-14T14:16:18;20.40;;;18.20;;
63379;SDS011;53160;55.014;73.156;2023-05-14T14:18:44;21.00;;;20.00;;
63379;SDS011;53160;55.014;73.156;2023-05-14T14:21:10;22.50;;;20.50;;
63379;SDS011;53160;55.014;73.156;2023-05-14T14:23:37;23.00;;;22.60;;
63379;SDS011;53160;55.014;73.156;2023-05-14T14:26:21;20.60;;;19.60;;
63379;SDS011;53160;55.014;73.156;2023-05-14T14:28:47;23.40;;;22.80;;
63379;SDS011;53160;55.014;73.156;2023-05-14T14:31:16;26.40;;;25.20;;
63379;SDS011;53160;55.014;73.156;2023-05-14T14:33:42;26.75;;;24.75;;
63379;SDS011;53160;55.014;73.156;2023-05-14T14:36:27;30.00;;;28.00;;
63379;SDS011;53160;55.014;73.156;2023-05-14T14:38:56;43.20;;;37.60;;
63379;SDS011;53160;55.014;73.156;2023-05-14T14:41:23;50.60;;;40.60;;
63379;SDS011;53160;55.014;73.156;2023-05-14T14:43:49;42.40;;;37.20;;
63379;SDS011;53160;55.014;73.156;2023-05-14T14:46:15;36.50;;;32.50;;
63379;SDS011;53160;55.014;73.156;2023-05-14T14:48:41;31.50;;;30.00;;
63379;SDS011;53160;55.014;73.156;2023-05-14T14:51:26;33.80;;;31.60;;
63379;SDS011;53160;55.014;73.156;2023-05-14T14:53:52;46.00;;;38.00;;
63379;SDS011;53160;55.014;73.156;2023-05-14T14:56:18;41.50;;;34.00;;
63379;SDS011;53160;55.014;73.156;2023-05-14T14:58:45;45.60;;;38.80;;
63379;SDS011;53160;55.014;73.156;2023-05-14T15:01:11;61.00;;;47.75;;
63379;SDS011;53160;55.014;73.156;2023-05-14T15:03:37;59.25;;;47.75;;
63379;SDS011;53160;55.014;73.156;2023-05-14T15:06:03;50.00;;;42.00;;
63379;SDS011;53160;55.014;73.156;2023-05-14T15:08:29;46.20;;;38.80;;
63379;SDS011;53160;55.014;73.156;2023-05-14T15:10:55;52.40;;;44.40;;
63379;SDS011;53160;55.014;73.156;2023-05-14T15:13:21;59.75;;;47.50;;
63379;SDS011;53160;55.014;73.156;2023-05-14T15:16:06;62.40;;;49.20;;
63379;SDS011;53160;55.014;73.156;2023-05-14T15:18:35;52.60;;;39.20;;
63379;SDS011;53160;55.014;73.156;2023-05-14T15:21:01;50.00;;;40.60;;
63379;SDS011;53160;55.014;73.156;2023-05-14T15:23:45;39.40;;;35.20;;
63379;SDS011;53160;55.014;73.156;2023-05-14T15:26:11;45.00;;;37.75;;
63379;SDS011;53160;55.014;73.156;2023-05-14T15:28:37;35.80;;;33.80;;
63379;SDS011;53160;55.014;73.156;2023-05-14T15:31:04;34.80;;;31.80;;
63379;SDS011;53160;55.014;73.156;2023-05-14T15:33:36;37.00;;;33.60;;
63379;SDS011;53160;55.014;73.156;2023-05-14T15:36:09;30.80;;;28.60;;
63379;SDS011;53160;55.014;73.156;2023-05-14T15:38:54;31.40;;;30.40;;
63379;SDS011;53160;55.014;73.156;2023-05-14T15:41:38;28.00;;;26.40;;
63379;SDS011;53160;55.014;73.156;2023-05-14T15:44:23;30.80;;;28.40;;
63379;SDS011;53160;55.014;73.156;2023-05-14T15:46:49;24.20;;;24.00;;
63379;SDS011;53160;55.014;73.156;2023-05-14T15:49:15;21.50;;;20.50;;
63379;SDS011;53160;55.014;73.156;2023-05-14T15:51:41;28.60;;;25.20;;
63379;SDS011;53160;55.014;73.156;2023-05-14T15:54:08;26.20;;;25.00;;
63379;SDS011;53160;55.014;73.156;2023-05-14T15:56:34;19.40;;;18.80;;
63379;SDS011;53160;55.014;73.156;2023-05-14T15:59:00;24.25;;;20.00;;
63379;SDS011;53160;55.014;73.156;2023-05-14T16:01:26;25.00;;;23.80;;
63379;SDS011;53160;55.014;73.156;2023-05-14T16:03:52;21.75;;;20.25;;
63379;SDS011;53160;55.014;73.156;2023-05-14T16:06:18;33.40;;;27.60;;
63379;SDS011;53160;55.014;73.156;2023-05-14T16:09:03;24.00;;;23.00;;
63379;SDS011;53160;55.014;73.156;2023-05-14T16:11:47;18.60;;;16.60;;
63379;SDS011;53160;55.014;73.156;2023-05-14T16:14:16;23.80;;;22.40;;
63379;SDS011;53160;55.014;73.156;2023-05-14T16:22:12;18.80;;;15.60;;
63379;SDS011;53160;55.014;73.156;2023-05-14T16:24:38;23.75;;;23.00;;
63379;SDS011;53160;55.014;73.156;2023-05-14T16:27:04;24.40;;;21.40;;
63379;SDS011;53160;55.014;73.156;2023-05-14T16:29:30;22.20;;;20.80;;